Maersk Windhoek — 3FWJ3 — position and weather

sailwx.info

Track history (hours):
 
Tides and Currents Weather Stations Pressure Air Temp Water Temp Dewpoint Dewpoint Depression Visibility Wind Speed Wind Dir Waves Ship Positions

Maersk Windhoek

Last reported at 2014-Sep-18 14:21 UTC. Time now 2014-Sep-19 17:52 UTC.
Position N 37°05' E 004°49'.

Length 172 m; draft 9.4 m.

Type: Ship (hazmat cat C). MMSI: 370431000.

Date/timePositionNaut miles runAvg speedWind from/ knotsBaromVisibWave heightAir tempDewpointWater temp
2014-Sep-18 14:21N 37°05' E 004°49'27118.0
2014-Sep-17 23:14N 39°24' W 000°08'913.2
2014-Sep-17 22:32N 39°26' W 000°19'0 0.3
2014-Sep-17 21:33N 39°26' W 000°20'0 0.0
2014-Sep-17 20:33N 39°26' W 000°20'0 0.0
2014-Sep-17 19:30N 39°26' W 000°20'0 0.0
2014-Sep-17 18:33N 39°26' W 000°20'0 0.0
2014-Sep-17 17:33N 39°26' W 000°20'0 0.0
2014-Sep-17 16:33N 39°26' W 000°20'0 0.0
2014-Sep-17 15:33N 39°26' W 000°20'0 0.0
2014-Sep-17 14:33N 39°26' W 000°20'0 0.0
2014-Sep-17 13:33N 39°26' W 000°20'0 0.0
2014-Sep-17 12:33N 39°26' W 000°20'0 0.0
2014-Sep-17 11:33N 39°26' W 000°20'0 0.0
2014-Sep-17 10:33N 39°26' W 000°20'1 0.4
2014-Sep-17 09:11N 39°26' W 000°19'0 0.0
2014-Sep-17 08:26N 39°26' W 000°19'0 0.0
2014-Sep-17 07:32N 39°26' W 000°19'0 0.0
2014-Sep-17 06:32N 39°26' W 000°19'0 0.0
2014-Sep-17 05:32N 39°26' W 000°19'0 0.0
2014-Sep-17 04:32N 39°26' W 000°19'0 0.0
2014-Sep-17 03:32N 39°26' W 000°19'0 0.0
2014-Sep-17 02:32N 39°26' W 000°19'0 0.0
2014-Sep-17 01:32N 39°26' W 000°19'0 0.0
2014-Sep-17 00:32N 39°26' W 000°19'0 0.0
2014-Sep-16 23:32N 39°26' W 000°19'0 0.0
2014-Sep-16 22:32N 39°26' W 000°19'0 0.0
2014-Sep-16 21:32N 39°26' W 000°19'0 0.0
2014-Sep-16 20:32N 39°26' W 000°19'0 0.0
2014-Sep-16 19:32N 39°26' W 000°19'0 0.0
2014-Sep-16 18:32N 39°26' W 000°19'0 0.0
2014-Sep-16 17:32N 39°26' W 000°19'0 0.0
2014-Sep-16 16:32N 39°26' W 000°19'0 0.0
2014-Sep-16 15:32N 39°26' W 000°19'0 0.0
2014-Sep-16 14:32N 39°26' W 000°19'0 0.0
2014-Sep-16 13:32N 39°26' W 000°19'0 0.0
2014-Sep-16 12:32N 39°26' W 000°19'0 0.0
2014-Sep-16 11:29N 39°26' W 000°19'0 0.0
2014-Sep-16 10:26N 39°26' W 000°19'0 0.0
2014-Sep-16 09:32N 39°26' W 000°19'3 2.5
2014-Sep-16 08:32N 39°24' W 000°17'0 0.5
2014-Sep-16 07:31N 39°23' W 000°18'0 0.0
2014-Sep-16 06:31N 39°23' W 000°18'3 3.4
2014-Sep-16 05:33N 39°23' W 000°13'4815.8
2014-Sep-16 02:32N 38°58' E 000°39'2418.9
2014-Sep-16 01:15N 38°44' E 001°04'1318.5
2014-Sep-16 00:33N 38°37' E 001°17'3818.4
2014-Sep-15 22:31N 38°18' E 001°59'2118.7
2014-Sep-15 21:24N 38°08' E 002°22'2118.9
2014-Sep-15 20:17N 37°58' E 002°46'1518.3
2014-Sep-15 19:29N 37°50' E 003°02'1718.1
2014-Sep-15 18:33N 37°43' E 003°21'1818.4
2014-Sep-15 17:33N 37°34' E 003°42'2118.5
2014-Sep-15 16:27N 37°24' E 004°04'  
2014-Sep-11 11:10N 36°44' E 005°09'0 0.0
2014-Sep-11 06:22N 36°44' E 005°09'0 0.0
2014-Sep-10 23:31N 36°44' E 005°09'155 7.6
2014-Sep-10 03:15N 39°18' E 005°01'1516.7
2014-Sep-10 02:22N 39°33' E 005°01'1417.0
2014-Sep-10 01:32N 39°47' E 005°01'1717.2
2014-Sep-10 00:33N 40°04' E 005°01'2517.4
2014-Sep-09 23:08N 40°29' E 005°01'13217.4
2014-Sep-09 15:33N 42°41' E 005°01'1717.6
2014-Sep-09 14:34N 42°58' E 005°02'1716.9
2014-Sep-09 13:34N 43°15' E 005°00'1010.0
2014-Sep-09 12:34N 43°24' E 004°54'3 2.8
2014-Sep-09 11:31N 43°25' E 004°50'0 0.0
2014-Sep-09 10:31N 43°25' E 004°50'0 0.0
2014-Sep-09 09:31N 43°25' E 004°50'0 0.0
2014-Sep-09 08:31N 43°25' E 004°50'0 0.0
2014-Sep-09 07:31N 43°25' E 004°50'0 0.0
2014-Sep-09 06:31N 43°25' E 004°50'0 0.0
2014-Sep-09 05:32N 43°25' E 004°50'0 0.0
2014-Sep-09 04:31N 43°25' E 004°50'3 3.1
2014-Sep-09 03:33N 43°24' E 004°54'8 8.4
2014-Sep-09 02:33N 43°17' E 005°00'9 8.8
2014-Sep-09 01:34N 43°08' E 004°57'1717.0
2014-Sep-09 00:33N 42°59' E 004°38'2316.7
2014-Sep-08 23:12N 42°45' E 004°14'2615.8
2014-Sep-08 21:32N 42°29' E 003°46'1615.5
2014-Sep-08 20:32N 42°17' E 003°31'1916.3
2014-Sep-08 19:21N 41°58' E 003°27'1215.4
2014-Sep-08 18:33N 41°49' E 003°16'1816.7
2014-Sep-08 17:28N 41°38' E 002°57'1617.1
2014-Sep-08 16:34N 41°28' E 002°41'1716.9
2014-Sep-08 15:34N 41°18' E 002°23'9 9.3
2014-Sep-08 14:33N 41°19' E 002°10'  
Track history (hours):
 
Tides and Currents Weather Stations Pressure Air Temp Water Temp Dewpoint Dewpoint Depression Visibility Wind Speed Wind Dir Waves Ship Positions

Maersk Windhoek

Last reported at 2014-Sep-18 14:21 UTC. Time now 2014-Sep-19 17:52 UTC.
Position N 37°05' E 004°49'.

Length 172 m; draft 9.4 m.

Type: Ship (hazmat cat C). MMSI: 370431000.

Date/timePositionNaut miles runAvg speedWind from/ knotsBaromVisibWave heightAir tempDewpointWater temp
2014-Sep-18 14:21N 37°05' E 004°49'27118.0
2014-Sep-17 23:14N 39°24' W 000°08'913.2
2014-Sep-17 22:32N 39°26' W 000°19'0 0.3
2014-Sep-17 21:33N 39°26' W 000°20'0 0.0
2014-Sep-17 20:33N 39°26' W 000°20'0 0.0
2014-Sep-17 19:30N 39°26' W 000°20'0 0.0
2014-Sep-17 18:33N 39°26' W 000°20'0 0.0
2014-Sep-17 17:33N 39°26' W 000°20'0 0.0
2014-Sep-17 16:33N 39°26' W 000°20'0 0.0
2014-Sep-17 15:33N 39°26' W 000°20'0 0.0
2014-Sep-17 14:33N 39°26' W 000°20'0 0.0
2014-Sep-17 13:33N 39°26' W 000°20'0 0.0
2014-Sep-17 12:33N 39°26' W 000°20'0 0.0
2014-Sep-17 11:33N 39°26' W 000°20'0 0.0
2014-Sep-17 10:33N 39°26' W 000°20'1 0.4
2014-Sep-17 09:11N 39°26' W 000°19'0 0.0
2014-Sep-17 08:26N 39°26' W 000°19'0 0.0
2014-Sep-17 07:32N 39°26' W 000°19'0 0.0
2014-Sep-17 06:32N 39°26' W 000°19'0 0.0
2014-Sep-17 05:32N 39°26' W 000°19'0 0.0
2014-Sep-17 04:32N 39°26' W 000°19'0 0.0
2014-Sep-17 03:32N 39°26' W 000°19'0 0.0
2014-Sep-17 02:32N 39°26' W 000°19'0 0.0
2014-Sep-17 01:32N 39°26' W 000°19'0 0.0
2014-Sep-17 00:32N 39°26' W 000°19'0 0.0
2014-Sep-16 23:32N 39°26' W 000°19'0 0.0
2014-Sep-16 22:32N 39°26' W 000°19'0 0.0
2014-Sep-16 21:32N 39°26' W 000°19'0 0.0
2014-Sep-16 20:32N 39°26' W 000°19'0 0.0
2014-Sep-16 19:32N 39°26' W 000°19'0 0.0
2014-Sep-16 18:32N 39°26' W 000°19'0 0.0
2014-Sep-16 17:32N 39°26' W 000°19'0 0.0
2014-Sep-16 16:32N 39°26' W 000°19'0 0.0
2014-Sep-16 15:32N 39°26' W 000°19'0 0.0
2014-Sep-16 14:32N 39°26' W 000°19'0 0.0
2014-Sep-16 13:32N 39°26' W 000°19'0 0.0
2014-Sep-16 12:32N 39°26' W 000°19'0 0.0
2014-Sep-16 11:29N 39°26' W 000°19'0 0.0
2014-Sep-16 10:26N 39°26' W 000°19'0 0.0
2014-Sep-16 09:32N 39°26' W 000°19'3 2.5
2014-Sep-16 08:32N 39°24' W 000°17'0 0.5
2014-Sep-16 07:31N 39°23' W 000°18'0 0.0
2014-Sep-16 06:31N 39°23' W 000°18'3 3.4
2014-Sep-16 05:33N 39°23' W 000°13'4815.8
2014-Sep-16 02:32N 38°58' E 000°39'2418.9
2014-Sep-16 01:15N 38°44' E 001°04'1318.5
2014-Sep-16 00:33N 38°37' E 001°17'3818.4
2014-Sep-15 22:31N 38°18' E 001°59'2118.7
2014-Sep-15 21:24N 38°08' E 002°22'2118.9
2014-Sep-15 20:17N 37°58' E 002°46'1518.3
2014-Sep-15 19:29N 37°50' E 003°02'1718.1
2014-Sep-15 18:33N 37°43' E 003°21'1818.4
2014-Sep-15 17:33N 37°34' E 003°42'2118.5
2014-Sep-15 16:27N 37°24' E 004°04'  
2014-Sep-11 11:10N 36°44' E 005°09'0 0.0
2014-Sep-11 06:22N 36°44' E 005°09'0 0.0
2014-Sep-10 23:31N 36°44' E 005°09'155 7.6
2014-Sep-10 03:15N 39°18' E 005°01'1516.7
2014-Sep-10 02:22N 39°33' E 005°01'1417.0
2014-Sep-10 01:32N 39°47' E 005°01'1717.2
2014-Sep-10 00:33N 40°04' E 005°01'2517.4
2014-Sep-09 23:08N 40°29' E 005°01'13217.4
2014-Sep-09 15:33N 42°41' E 005°01'1717.6
2014-Sep-09 14:34N 42°58' E 005°02'1716.9
2014-Sep-09 13:34N 43°15' E 005°00'1010.0
2014-Sep-09 12:34N 43°24' E 004°54'3 2.8
2014-Sep-09 11:31N 43°25' E 004°50'0 0.0
2014-Sep-09 10:31N 43°25' E 004°50'0 0.0
2014-Sep-09 09:31N 43°25' E 004°50'0 0.0
2014-Sep-09 08:31N 43°25' E 004°50'0 0.0
2014-Sep-09 07:31N 43°25' E 004°50'0 0.0
2014-Sep-09 06:31N 43°25' E 004°50'0 0.0
2014-Sep-09 05:32N 43°25' E 004°50'0 0.0
2014-Sep-09 04:31N 43°25' E 004°50'3 3.1
2014-Sep-09 03:33N 43°24' E 004°54'8 8.4
2014-Sep-09 02:33N 43°17' E 005°00'9 8.8
2014-Sep-09 01:34N 43°08' E 004°57'1717.0
2014-Sep-09 00:33N 42°59' E 004°38'2316.7
2014-Sep-08 23:12N 42°45' E 004°14'2615.8
2014-Sep-08 21:32N 42°29' E 003°46'1615.5
2014-Sep-08 20:32N 42°17' E 003°31'1916.3
2014-Sep-08 19:21N 41°58' E 003°27'1215.4
2014-Sep-08 18:33N 41°49' E 003°16'1816.7
2014-Sep-08 17:28N 41°38' E 002°57'1617.1
2014-Sep-08 16:34N 41°28' E 002°41'1716.9
2014-Sep-08 15:34N 41°18' E 002°23'9 9.3
2014-Sep-08 14:33N 41°19' E 002°10'  

Dump ship's entire track history